mut-lambrecht.de / Wetterstation / Rottenburg Seebronn / 442m msl
LETZTE AKTUALISIERUNG UM: 19:00 DATUM: Dezember 08 2016, time of next update: 19:05
Aktuelles WetterClear/Night Aktuelle Temperatur 0.3°C (32.5°F), Apparent temp -1.5°C
Höchsttemperatur (seit Mitternacht)5.5°C um: 15:01 Tiefsttemperatur (seit Mitternacht)-4.9°C um: 07:51
Windgeschwindigkeit (10 Minuten )0.4 kmh (0.2 kts) Windrichtung (Dir) (10 Minuten )W (272°)
Windchill Temperatur 0.3°C Windspitzen (letzte Std)4.9 kmh (2.7 kts) um: 18:31
Windspitzen (seit Mitternacht)9.3 kmh (5.0 kts) um: 11:47 Höchstes Windmittel / Minute (seit Mitternacht)4.9 kmh (2.6 kts) um: 12:51
Regenmenge (letzte Std)0.0 mm Regenmenge (seit Mitternacht)0.0 mm (0.00 in.)---
Regenmenge diesen Monat 0.0 mm (0.00 in.) Regenmenge seit Jahresbeginn 69.6 mm (2.74 in.)
Höchste Regenmenge pro Minute (letzte Std)0.0 mm/min Höchste Regenmenge pro Stunde (letzte 6 Std)0.0 mm/stunde
Regenmenge Gestern 0.0 mm Taupunkt -2.7°C (Wet Bulb :-0.8°C )
Luftfeuchtigkeit 80 %, Humidex -2.5°C Aktueller Luftdruck (auf Meereshöhe bezogen)1031.0 hPa
Luftdrucktendenz -0.1 hPa (letzte Std) Trend (letzte 1 Std)gleichbleibend
Luftdrucktendenz (letzte 12 Std)-1.3 hPa Luftdrucktendenz (letzte 6 Std)-0.7 hPa



Weather report/warning/Metars

Stuttgart-Echterdingen, Germany (EDDS) 48-41N 009-13E 391M
Dec 08, 2016 - 12:20 PM EST / 2016.12.08 1720 UTC
Wind: Variable at 1 MPH (1 KT):0
Visibility: greater than 7 mile(s):0
Temperature: 33 F (1 C)
Dew Point: 28 F (-2 C)
Relative Humidity: 80%
Pressure (altimeter): 30.45 in. Hg (1031 hPa)
ob: EDDS 081720Z VRB01KT CAVOK 01/M02 Q1031 NOSIG
cycle: 17
Karlsruhe, Baden Wurttemberg, Germany (EDSB) 48-46-43N 008-04-47E
Dec 08, 2016 - 12:29 PM EST / 2016.12.08 1729 UTC
Wind: from the SSW (210 degrees) at 3 MPH (3 KT) (direction variable):0
Visibility: less than 1 mile:0
Sky conditions: obscured
Weather: freezing fog
Temperature: 30 F (-1 C)
Dew Point: 30 F (-1 C)
Relative Humidity: 100%
Pressure (altimeter): 30.47 in. Hg (1032 hPa)
ob: EDSB 081729Z 21003KT 0650 R21/0800V1900D FZFG VV/// M01/M01 Q1032
cycle: 17
Lahr, CAN-AFB, Germany (EDTL) 48-22-09N 007-49-40E
Dec 08, 2016 - 11:50 AM EST / 2016.12.08 1650 UTC
Wind: from the NW (320 degrees) at 2 MPH (2 KT):0
Visibility: 1 mile(s):0
Weather: mist
Temperature: 32 F (0 C)
Dew Point: 32 F (0 C)
Relative Humidity: 100%
Pressure (altimeter): 30.50 in. Hg (1033 hPa)
ob: EDTL 081650Z 32002KT 2600 BR NSC 00/00 Q1033
cycle: 17
Laupheim, Germany (ETHL) 48-13N 009-55E 550M
Dec 08, 2016 - 12:20 PM EST / 2016.12.08 1720 UTC
Wind: from the SW (230 degrees) at 8 MPH (7 KT):0
Visibility: greater than 7 mile(s):0
Sky conditions: partly cloudy
Temperature: 33 F (1 C)
Windchill: 26 F (-3 C):1
Dew Point: 28 F (-2 C)
Relative Humidity: 80%
Pressure (altimeter): 30.47 in. Hg (1032 hPa)
ob: ETHL 081720Z 23007KT 9999 FEW150 SCT230 01/M02 Q1032 BLU+
cycle: 17



Die Wetterdaten werden alle 2 Minuten gespeichert, aber die Datenübertragung findet jede Minute statt. Die beste Ansicht wird in einer Auflösung von 800 x 600 und "True colour" erzielt. Linie zeigt die relative Luftfeuchtigkeit an.

Drücken Sie bitte auf "Aktualisieren" in Ihrem Browser, um die aktuellsten Daten zu erhalten.

Klicken Sie hier, um eine Übersicht der Durchschnitts- u. Extremwerte für den Monat zu erhalten
Created by "Weather Display" software version 10.37S at this start time/date 23:14:12 18.10.2016